sensor_id;sensor_type;location;lat;lon;timestamp;P1;durP1;ratioP1;P2;durP2;ratioP2
54845;SDS011;53889;50.084;8.646;2023-10-09T00:01:26;11.13;;;5.65;;
54845;SDS011;53889;50.084;8.646;2023-10-09T00:03:52;11.82;;;5.50;;
54845;SDS011;53889;50.084;8.646;2023-10-09T00:06:21;13.00;;;5.72;;
54845;SDS011;53889;50.084;8.646;2023-10-09T00:08:57;12.70;;;5.97;;
54845;SDS011;53889;50.084;8.646;2023-10-09T00:11:36;11.77;;;6.15;;
54845;SDS011;53889;50.084;8.646;2023-10-09T00:14:07;11.57;;;5.53;;
54845;SDS011;53889;50.084;8.646;2023-10-09T00:16:35;12.63;;;5.75;;
54845;SDS011;53889;50.084;8.646;2023-10-09T00:19:08;12.27;;;5.85;;
54845;SDS011;53889;50.084;8.646;2023-10-09T00:21:42;10.45;;;5.18;;
54845;SDS011;53889;50.084;8.646;2023-10-09T00:24:10;11.18;;;5.30;;
54845;SDS011;53889;50.084;8.646;2023-10-09T00:26:43;9.50;;;4.55;;
54845;SDS011;53889;50.084;8.646;2023-10-09T00:29:11;9.25;;;4.55;;
54845;SDS011;53889;50.084;8.646;2023-10-09T00:31:49;8.65;;;4.18;;
54845;SDS011;53889;50.084;8.646;2023-10-09T00:34:20;6.90;;;3.83;;
54845;SDS011;53889;50.084;8.646;2023-10-09T00:36:47;8.48;;;4.70;;
54845;SDS011;53889;50.084;8.646;2023-10-09T00:39:17;9.82;;;4.40;;
54845;SDS011;53889;50.084;8.646;2023-10-09T00:41:58;10.60;;;4.63;;
54845;SDS011;53889;50.084;8.646;2023-10-09T00:44:26;8.70;;;4.47;;
54845;SDS011;53889;50.084;8.646;2023-10-09T00:47:04;8.18;;;4.65;;
54845;SDS011;53889;50.084;8.646;2023-10-09T00:49:45;10.70;;;4.50;;
54845;SDS011;53889;50.084;8.646;2023-10-09T00:52:24;8.60;;;4.57;;
54845;SDS011;53889;50.084;8.646;2023-10-09T00:54:57;8.55;;;3.85;;
54845;SDS011;53889;50.084;8.646;2023-10-09T00:57:29;9.30;;;3.95;;
54845;SDS011;53889;50.084;8.646;2023-10-09T01:00:00;7.90;;;3.72;;
54845;SDS011;53889;50.084;8.646;2023-10-09T01:02:37;6.32;;;3.28;;
54845;SDS011;53889;50.084;8.646;2023-10-09T01:05:08;7.10;;;3.50;;
54845;SDS011;53889;50.084;8.646;2023-10-09T01:07:45;6.93;;;3.40;;
54845;SDS011;53889;50.084;8.646;2023-10-09T01:10:14;7.07;;;4.10;;
54845;SDS011;53889;50.084;8.646;2023-10-09T01:12:42;6.53;;;3.60;;
54845;SDS011;53889;50.084;8.646;2023-10-09T01:15:11;10.43;;;4.15;;
54845;SDS011;53889;50.084;8.646;2023-10-09T01:18:02;9.25;;;3.92;;
54845;SDS011;53889;50.084;8.646;2023-10-09T01:20:32;10.38;;;4.28;;
54845;SDS011;53889;50.084;8.646;2023-10-09T01:23:08;8.93;;;4.40;;
54845;SDS011;53889;50.084;8.646;2023-10-09T01:25:36;9.82;;;4.47;;
54845;SDS011;53889;50.084;8.646;2023-10-09T01:28:09;8.25;;;4.20;;
54845;SDS011;53889;50.084;8.646;2023-10-09T01:30:41;9.18;;;4.30;;
54845;SDS011;53889;50.084;8.646;2023-10-09T01:33:08;11.20;;;5.93;;
54845;SDS011;53889;50.084;8.646;2023-10-09T01:35:47;9.77;;;4.47;;
54845;SDS011;53889;50.084;8.646;2023-10-09T01:38:18;10.20;;;4.65;;
54845;SDS011;53889;50.084;8.646;2023-10-09T01:40:55;8.60;;;4.75;;
54845;SDS011;53889;50.084;8.646;2023-10-09T01:43:29;9.87;;;4.67;;
54845;SDS011;53889;50.084;8.646;2023-10-09T01:45:59;9.00;;;4.00;;
54845;SDS011;53889;50.084;8.646;2023-10-09T01:48:28;7.70;;;3.83;;
54845;SDS011;53889;50.084;8.646;2023-10-09T01:50:58;9.13;;;4.30;;
54845;SDS011;53889;50.084;8.646;2023-10-09T01:53:26;6.78;;;3.92;;
54845;SDS011;53889;50.084;8.646;2023-10-09T01:55:55;8.95;;;4.00;;
54845;SDS011;53889;50.084;8.646;2023-10-09T01:58:24;7.82;;;4.07;;
54845;SDS011;53889;50.084;8.646;2023-10-09T02:00:52;7.75;;;3.92;;
54845;SDS011;53889;50.084;8.646;2023-10-09T02:03:21;7.95;;;4.25;;
54845;SDS011;53889;50.084;8.646;2023-10-09T02:05:54;9.93;;;4.07;;
54845;SDS011;53889;50.084;8.646;2023-10-09T02:08:44;8.68;;;3.95;;
54845;SDS011;53889;50.084;8.646;2023-10-09T02:11:14;8.63;;;3.90;;
54845;SDS011;53889;50.084;8.646;2023-10-09T02:13:49;7.63;;;3.80;;
54845;SDS011;53889;50.084;8.646;2023-10-09T02:16:20;7.20;;;4.15;;
54845;SDS011;53889;50.084;8.646;2023-10-09T02:18:54;5.45;;;3.40;;
54845;SDS011;53889;50.084;8.646;2023-10-09T02:21:24;8.77;;;3.78;;
54845;SDS011;53889;50.084;8.646;2023-10-09T02:24:00;8.40;;;4.00;;
54845;SDS011;53889;50.084;8.646;2023-10-09T02:26:32;7.15;;;3.58;;
54845;SDS011;53889;50.084;8.646;2023-10-09T02:29:22;7.07;;;3.72;;
54845;SDS011;53889;50.084;8.646;2023-10-09T02:31:50;8.27;;;3.72;;
54845;SDS011;53889;50.084;8.646;2023-10-09T02:34:18;7.55;;;3.40;;
54845;SDS011;53889;50.084;8.646;2023-10-09T02:36:47;7.50;;;3.70;;
54845;SDS011;53889;50.084;8.646;2023-10-09T02:39:24;8.60;;;3.95;;
54845;SDS011;53889;50.084;8.646;2023-10-09T02:41:51;7.13;;;3.80;;
54845;SDS011;53889;50.084;8.646;2023-10-09T02:44:25;8.65;;;3.58;;
54845;SDS011;53889;50.084;8.646;2023-10-09T02:46:55;6.60;;;3.58;;
54845;SDS011;53889;50.084;8.646;2023-10-09T02:49:23;6.88;;;3.90;;
54845;SDS011;53889;50.084;8.646;2023-10-09T02:51:51;8.65;;;3.72;;
54845;SDS011;53889;50.084;8.646;2023-10-09T02:54:19;8.57;;;3.88;;
54845;SDS011;53889;50.084;8.646;2023-10-09T02:56:53;10.27;;;3.95;;
54845;SDS011;53889;50.084;8.646;2023-10-09T02:59:22;12.82;;;4.80;;
54845;SDS011;53889;50.084;8.646;2023-10-09T03:01:49;7.28;;;4.03;;
54845;SDS011;53889;50.084;8.646;2023-10-09T03:04:17;7.25;;;4.10;;
54845;SDS011;53889;50.084;8.646;2023-10-09T03:06:45;8.10;;;4.43;;
54845;SDS011;53889;50.084;8.646;2023-10-09T03:09:16;8.80;;;3.92;;
54845;SDS011;53889;50.084;8.646;2023-10-09T03:11:43;7.15;;;3.92;;
54845;SDS011;53889;50.084;8.646;2023-10-09T03:14:12;7.85;;;4.10;;
54845;SDS011;53889;50.084;8.646;2023-10-09T03:16:40;6.82;;;3.38;;
54845;SDS011;53889;50.084;8.646;2023-10-09T03:19:08;7.47;;;4.03;;
54845;SDS011;53889;50.084;8.646;2023-10-09T03:21:35;7.05;;;3.78;;
54845;SDS011;53889;50.084;8.646;2023-10-09T03:24:02;8.70;;;4.45;;
54845;SDS011;53889;50.084;8.646;2023-10-09T03:26:31;7.43;;;4.28;;
54845;SDS011;53889;50.084;8.646;2023-10-09T03:28:58;9.07;;;4.75;;
54845;SDS011;53889;50.084;8.646;2023-10-09T03:31:27;7.78;;;4.80;;
54845;SDS011;53889;50.084;8.646;2023-10-09T03:33:56;8.23;;;4.32;;
54845;SDS011;53889;50.084;8.646;2023-10-09T03:36:22;9.82;;;4.97;;
54845;SDS011;53889;50.084;8.646;2023-10-09T03:38:51;8.57;;;4.55;;
54845;SDS011;53889;50.084;8.646;2023-10-09T03:41:19;7.50;;;4.45;;
54845;SDS011;53889;50.084;8.646;2023-10-09T03:43:46;9.73;;;4.65;;
54845;SDS011;53889;50.084;8.646;2023-10-09T03:46:13;12.20;;;5.00;;
54845;SDS011;53889;50.084;8.646;2023-10-09T03:48:47;9.48;;;4.85;;
54845;SDS011;53889;50.084;8.646;2023-10-09T03:51:14;13.20;;;4.90;;
54845;SDS011;53889;50.084;8.646;2023-10-09T03:53:46;9.00;;;4.68;;
54845;SDS011;53889;50.084;8.646;2023-10-09T03:56:13;10.05;;;4.80;;
54845;SDS011;53889;50.084;8.646;2023-10-09T03:58:42;9.70;;;4.85;;
54845;SDS011;53889;50.084;8.646;2023-10-09T04:01:10;8.20;;;4.70;;
54845;SDS011;53889;50.084;8.646;2023-10-09T04:03:43;10.93;;;5.50;;
54845;SDS011;53889;50.084;8.646;2023-10-09T04:06:12;9.38;;;4.95;;
54845;SDS011;53889;50.084;8.646;2023-10-09T04:08:40;10.07;;;5.72;;
54845;SDS011;53889;50.084;8.646;2023-10-09T04:11:12;11.15;;;5.35;;
54845;SDS011;53889;50.084;8.646;2023-10-09T04:13:42;10.10;;;4.88;;
54845;SDS011;53889;50.084;8.646;2023-10-09T04:16:11;13.77;;;6.45;;
54845;SDS011;53889;50.084;8.646;2023-10-09T04:18:59;13.93;;;5.78;;
54845;SDS011;53889;50.084;8.646;2023-10-09T04:21:32;10.40;;;5.78;;
54845;SDS011;53889;50.084;8.646;2023-10-09T04:24:01;9.65;;;5.68;;
54845;SDS011;53889;50.084;8.646;2023-10-09T04:26:47;12.05;;;5.40;;
54845;SDS011;53889;50.084;8.646;2023-10-09T04:29:21;11.32;;;6.22;;
54845;SDS011;53889;50.084;8.646;2023-10-09T04:32:03;11.57;;;6.13;;
54845;SDS011;53889;50.084;8.646;2023-10-09T04:34:33;12.75;;;6.00;;
54845;SDS011;53889;50.084;8.646;2023-10-09T04:37:02;13.90;;;6.38;;
54845;SDS011;53889;50.084;8.646;2023-10-09T04:39:53;11.75;;;6.35;;
54845;SDS011;53889;50.084;8.646;2023-10-09T04:42:37;11.05;;;6.10;;
54845;SDS011;53889;50.084;8.646;2023-10-09T04:45:04;13.32;;;6.35;;
54845;SDS011;53889;50.084;8.646;2023-10-09T04:48:12;9.70;;;6.07;;
54845;SDS011;53889;50.084;8.646;2023-10-09T04:50:57;12.25;;;5.78;;
54845;SDS011;53889;50.084;8.646;2023-10-09T04:53:43;10.80;;;5.93;;
54845;SDS011;53889;50.084;8.646;2023-10-09T04:56:13;12.35;;;6.18;;
54845;SDS011;53889;50.084;8.646;2023-10-09T04:58:41;13.02;;;6.30;;
54845;SDS011;53889;50.084;8.646;2023-10-09T05:01:10;13.50;;;6.82;;
54845;SDS011;53889;50.084;8.646;2023-10-09T05:03:40;13.73;;;6.35;;
54845;SDS011;53889;50.084;8.646;2023-10-09T05:06:10;12.27;;;6.15;;
54845;SDS011;53889;50.084;8.646;2023-10-09T05:08:59;11.77;;;6.45;;
54845;SDS011;53889;50.084;8.646;2023-10-09T05:11:33;13.20;;;6.47;;
54845;SDS011;53889;50.084;8.646;2023-10-09T05:14:18;14.60;;;6.25;;
54845;SDS011;53889;50.084;8.646;2023-10-09T05:16:52;15.73;;;6.63;;
54845;SDS011;53889;50.084;8.646;2023-10-09T05:19:26;12.38;;;6.13;;
54845;SDS011;53889;50.084;8.646;2023-10-09T05:22:07;15.32;;;6.53;;
54845;SDS011;53889;50.084;8.646;2023-10-09T05:24:55;12.70;;;6.38;;
54845;SDS011;53889;50.084;8.646;2023-10-09T05:27:23;12.10;;;6.18;;
54845;SDS011;53889;50.084;8.646;2023-10-09T05:30:10;12.75;;;5.90;;
54845;SDS011;53889;50.084;8.646;2023-10-09T05:32:53;15.10;;;6.55;;
54845;SDS011;53889;50.084;8.646;2023-10-09T05:35:45;15.32;;;6.32;;
54845;SDS011;53889;50.084;8.646;2023-10-09T05:38:30;13.18;;;7.18;;
54845;SDS011;53889;50.084;8.646;2023-10-09T05:41:02;11.52;;;6.10;;
54845;SDS011;53889;50.084;8.646;2023-10-09T05:43:51;12.43;;;6.30;;
54845;SDS011;53889;50.084;8.646;2023-10-09T05:46:37;12.73;;;6.90;;
54845;SDS011;53889;50.084;8.646;2023-10-09T05:49:14;13.77;;;6.30;;
54845;SDS011;53889;50.084;8.646;2023-10-09T05:51:44;14.57;;;6.47;;
54845;SDS011;53889;50.084;8.646;2023-10-09T05:54:18;13.43;;;6.95;;
54845;SDS011;53889;50.084;8.646;2023-10-09T05:57:06;11.85;;;6.45;;
54845;SDS011;53889;50.084;8.646;2023-10-09T05:59:49;13.27;;;6.88;;
54845;SDS011;53889;50.084;8.646;2023-10-09T06:02:36;11.02;;;6.07;;
54845;SDS011;53889;50.084;8.646;2023-10-09T06:05:21;14.43;;;6.57;;
54845;SDS011;53889;50.084;8.646;2023-10-09T06:08:05;17.13;;;6.85;;
54845;SDS011;53889;50.084;8.646;2023-10-09T06:10:33;14.00;;;7.70;;
54845;SDS011;53889;50.084;8.646;2023-10-09T06:13:08;16.38;;;8.93;;
54845;SDS011;53889;50.084;8.646;2023-10-09T06:15:49;20.85;;;9.95;;
54845;SDS011;53889;50.084;8.646;2023-10-09T06:18:34;20.07;;;11.63;;
54845;SDS011;53889;50.084;8.646;2023-10-09T06:21:00;22.60;;;11.23;;
54845;SDS011;53889;50.084;8.646;2023-10-09T06:23:55;17.15;;;9.20;;
54845;SDS011;53889;50.084;8.646;2023-10-09T06:26:39;16.63;;;8.45;;
54845;SDS011;53889;50.084;8.646;2023-10-09T06:29:17;19.00;;;8.25;;
54845;SDS011;53889;50.084;8.646;2023-10-09T06:32:00;16.17;;;8.88;;
54845;SDS011;53889;50.084;8.646;2023-10-09T06:34:49;15.25;;;8.70;;
54845;SDS011;53889;50.084;8.646;2023-10-09T06:37:17;19.17;;;7.97;;
54845;SDS011;53889;50.084;8.646;2023-10-09T06:39:56;14.45;;;6.63;;
54845;SDS011;53889;50.084;8.646;2023-10-09T06:42:41;20.42;;;7.60;;
54845;SDS011;53889;50.084;8.646;2023-10-09T06:45:20;22.92;;;7.70;;
54845;SDS011;53889;50.084;8.646;2023-10-09T06:47:47;20.08;;;7.57;;
54845;SDS011;53889;50.084;8.646;2023-10-09T06:50:21;17.38;;;6.85;;
54845;SDS011;53889;50.084;8.646;2023-10-09T06:52:51;12.90;;;5.90;;
54845;SDS011;53889;50.084;8.646;2023-10-09T06:55:44;14.65;;;6.43;;
54845;SDS011;53889;50.084;8.646;2023-10-09T06:58:13;14.63;;;6.18;;
54845;SDS011;53889;50.084;8.646;2023-10-09T07:00:49;16.08;;;6.65;;
54845;SDS011;53889;50.084;8.646;2023-10-09T07:03:20;15.25;;;6.15;;
54845;SDS011;53889;50.084;8.646;2023-10-09T07:06:02;14.55;;;6.13;;
54845;SDS011;53889;50.084;8.646;2023-10-09T07:08:30;14.68;;;5.30;;
54845;SDS011;53889;50.084;8.646;2023-10-09T07:11:02;17.35;;;6.07;;
54845;SDS011;53889;50.084;8.646;2023-10-09T07:13:43;22.70;;;6.45;;
54845;SDS011;53889;50.084;8.646;2023-10-09T07:16:20;13.32;;;5.70;;
54845;SDS011;53889;50.084;8.646;2023-10-09T07:18:53;15.68;;;6.15;;
54845;SDS011;53889;50.084;8.646;2023-10-09T07:21:34;13.43;;;5.82;;
54845;SDS011;53889;50.084;8.646;2023-10-09T07:24:04;13.82;;;5.90;;
54845;SDS011;53889;50.084;8.646;2023-10-09T07:26:39;16.40;;;5.78;;
54845;SDS011;53889;50.084;8.646;2023-10-09T07:29:12;15.93;;;6.00;;
54845;SDS011;53889;50.084;8.646;2023-10-09T07:31:50;15.63;;;5.30;;
54845;SDS011;53889;50.084;8.646;2023-10-09T07:34:23;17.08;;;6.38;;
54845;SDS011;53889;50.084;8.646;2023-10-09T07:36:58;13.05;;;5.15;;
54845;SDS011;53889;50.084;8.646;2023-10-09T07:39:30;12.23;;;5.63;;
54845;SDS011;53889;50.084;8.646;2023-10-09T07:42:00;14.50;;;5.65;;
54845;SDS011;53889;50.084;8.646;2023-10-09T07:44:45;11.52;;;4.90;;
54845;SDS011;53889;50.084;8.646;2023-10-09T07:47:19;12.68;;;5.30;;
54845;SDS011;53889;50.084;8.646;2023-10-09T07:49:58;11.98;;;5.00;;
54845;SDS011;53889;50.084;8.646;2023-10-09T07:52:27;15.18;;;5.18;;
54845;SDS011;53889;50.084;8.646;2023-10-09T07:54:54;11.32;;;5.45;;
54845;SDS011;53889;50.084;8.646;2023-10-09T07:57:28;11.13;;;5.20;;
54845;SDS011;53889;50.084;8.646;2023-10-09T08:00:04;14.07;;;5.50;;
54845;SDS011;53889;50.084;8.646;2023-10-09T08:03:00;13.90;;;5.18;;
54845;SDS011;53889;50.084;8.646;2023-10-09T08:05:28;14.23;;;4.78;;
54845;SDS011;53889;50.084;8.646;2023-10-09T08:07:59;13.20;;;5.20;;
54845;SDS011;53889;50.084;8.646;2023-10-09T08:10:51;12.90;;;4.85;;
54845;SDS011;53889;50.084;8.646;2023-10-09T08:13:36;11.52;;;4.88;;
54845;SDS011;53889;50.084;8.646;2023-10-09T08:16:21;16.23;;;5.05;;
54845;SDS011;53889;50.084;8.646;2023-10-09T08:18:50;14.93;;;5.93;;
54845;SDS011;53889;50.084;8.646;2023-10-09T08:21:18;11.98;;;4.95;;
54845;SDS011;53889;50.084;8.646;2023-10-09T08:24:06;14.15;;;4.90;;
54845;SDS011;53889;50.084;8.646;2023-10-09T08:26:52;17.85;;;7.75;;
54845;SDS011;53889;50.084;8.646;2023-10-09T08:29:39;15.27;;;5.93;;
54845;SDS011;53889;50.084;8.646;2023-10-09T08:32:11;12.25;;;5.00;;
54845;SDS011;53889;50.084;8.646;2023-10-09T08:34:58;10.95;;;4.95;;
54845;SDS011;53889;50.084;8.646;2023-10-09T08:37:24;14.38;;;6.68;;
54845;SDS011;53889;50.084;8.646;2023-10-09T08:39:51;14.60;;;4.72;;
54845;SDS011;53889;50.084;8.646;2023-10-09T08:42:19;11.77;;;5.00;;
54845;SDS011;53889;50.084;8.646;2023-10-09T08:44:48;11.82;;;5.22;;
54845;SDS011;53889;50.084;8.646;2023-10-09T08:47:15;11.82;;;4.70;;
54845;SDS011;53889;50.084;8.646;2023-10-09T08:49:43;12.13;;;5.53;;
54845;SDS011;53889;50.084;8.646;2023-10-09T08:52:12;14.80;;;5.28;;
54845;SDS011;53889;50.084;8.646;2023-10-09T08:54:38;14.43;;;5.03;;
54845;SDS011;53889;50.084;8.646;2023-10-09T08:57:05;13.80;;;5.50;;
54845;SDS011;53889;50.084;8.646;2023-10-09T08:59:39;16.17;;;5.28;;
54845;SDS011;53889;50.084;8.646;2023-10-09T09:02:07;12.50;;;4.93;;
54845;SDS011;53889;50.084;8.646;2023-10-09T09:04:36;12.43;;;5.13;;
54845;SDS011;53889;50.084;8.646;2023-10-09T09:07:04;11.98;;;4.97;;
54845;SDS011;53889;50.084;8.646;2023-10-09T09:09:33;12.73;;;4.63;;
54845;SDS011;53889;50.084;8.646;2023-10-09T09:12:00;13.63;;;4.85;;
54845;SDS011;53889;50.084;8.646;2023-10-09T09:14:36;12.32;;;4.60;;
54845;SDS011;53889;50.084;8.646;2023-10-09T09:17:04;13.32;;;5.18;;
54845;SDS011;53889;50.084;8.646;2023-10-09T09:19:36;10.70;;;4.50;;
54845;SDS011;53889;50.084;8.646;2023-10-09T09:22:03;12.30;;;5.18;;
54845;SDS011;53889;50.084;8.646;2023-10-09T09:24:39;10.60;;;4.57;;
54845;SDS011;53889;50.084;8.646;2023-10-09T09:27:29;11.63;;;4.28;;
54845;SDS011;53889;50.084;8.646;2023-10-09T09:30:24;11.63;;;4.97;;
54845;SDS011;53889;50.084;8.646;2023-10-09T09:32:58;11.23;;;4.75;;
54845;SDS011;53889;50.084;8.646;2023-10-09T09:35:58;12.00;;;4.63;;
54845;SDS011;53889;50.084;8.646;2023-10-09T09:38:28;12.43;;;5.32;;
54845;SDS011;53889;50.084;8.646;2023-10-09T09:41:02;12.20;;;5.40;;
54845;SDS011;53889;50.084;8.646;2023-10-09T09:43:32;10.48;;;4.85;;
54845;SDS011;53889;50.084;8.646;2023-10-09T09:46:00;12.48;;;4.70;;
54845;SDS011;53889;50.084;8.646;2023-10-09T09:48:33;14.30;;;4.75;;
54845;SDS011;53889;50.084;8.646;2023-10-09T09:51:04;15.07;;;4.75;;
54845;SDS011;53889;50.084;8.646;2023-10-09T09:53:34;11.82;;;4.82;;
54845;SDS011;53889;50.084;8.646;2023-10-09T09:56:02;12.10;;;4.75;;
54845;SDS011;53889;50.084;8.646;2023-10-09T09:58:30;11.13;;;4.50;;
54845;SDS011;53889;50.084;8.646;2023-10-09T10:01:07;23.15;;;5.68;;
54845;SDS011;53889;50.084;8.646;2023-10-09T10:03:42;15.27;;;5.40;;
54845;SDS011;53889;50.084;8.646;2023-10-09T10:06:13;12.55;;;4.93;;
54845;SDS011;53889;50.084;8.646;2023-10-09T10:08:44;11.38;;;4.60;;
54845;SDS011;53889;50.084;8.646;2023-10-09T10:14:17;16.77;;;6.63;;
54845;SDS011;53889;50.084;8.646;2023-10-09T10:17:00;10.85;;;5.03;;
54845;SDS011;53889;50.084;8.646;2023-10-09T10:20:04;12.13;;;4.70;;
54845;SDS011;53889;50.084;8.646;2023-10-09T10:22:51;13.65;;;4.63;;
54845;SDS011;53889;50.084;8.646;2023-10-09T10:25:42;11.77;;;4.80;;
54845;SDS011;53889;50.084;8.646;2023-10-09T10:28:22;10.82;;;4.97;;
54845;SDS011;53889;50.084;8.646;2023-10-09T10:31:03;10.80;;;4.68;;
54845;SDS011;53889;50.084;8.646;2023-10-09T10:36:32;10.57;;;4.35;;
54845;SDS011;53889;50.084;8.646;2023-10-09T10:39:00;10.57;;;4.47;;
54845;SDS011;53889;50.084;8.646;2023-10-09T10:41:35;11.25;;;4.72;;
54845;SDS011;53889;50.084;8.646;2023-10-09T10:44:16;10.07;;;4.10;;
54845;SDS011;53889;50.084;8.646;2023-10-09T10:49:29;12.32;;;4.28;;
54845;SDS011;53889;50.084;8.646;2023-10-09T10:52:01;11.95;;;4.90;;
54845;SDS011;53889;50.084;8.646;2023-10-09T10:54:40;12.20;;;4.78;;
54845;SDS011;53889;50.084;8.646;2023-10-09T10:57:35;12.80;;;4.85;;
54845;SDS011;53889;50.084;8.646;2023-10-09T11:00:20;11.98;;;3.97;;
54845;SDS011;53889;50.084;8.646;2023-10-09T11:05:43;9.13;;;3.90;;
54845;SDS011;53889;50.084;8.646;2023-10-09T11:08:15;11.70;;;4.32;;
54845;SDS011;53889;50.084;8.646;2023-10-09T11:10:47;16.15;;;7.00;;
54845;SDS011;53889;50.084;8.646;2023-10-09T11:13:22;14.00;;;4.15;;
54845;SDS011;53889;50.084;8.646;2023-10-09T11:15:59;10.43;;;3.97;;
54845;SDS011;53889;50.084;8.646;2023-10-09T11:18:53;12.90;;;4.43;;
54845;SDS011;53889;50.084;8.646;2023-10-09T11:21:22;10.60;;;4.07;;
54845;SDS011;53889;50.084;8.646;2023-10-09T11:24:06;11.00;;;4.20;;
54845;SDS011;53889;50.084;8.646;2023-10-09T11:26:51;11.07;;;3.85;;
54845;SDS011;53889;50.084;8.646;2023-10-09T11:29:22;9.55;;;4.05;;
54845;SDS011;53889;50.084;8.646;2023-10-09T11:32:02;11.45;;;4.25;;
54845;SDS011;53889;50.084;8.646;2023-10-09T11:34:31;12.20;;;5.65;;
54845;SDS011;53889;50.084;8.646;2023-10-09T11:37:01;11.75;;;5.10;;
54845;SDS011;53889;50.084;8.646;2023-10-09T11:39:31;8.95;;;4.00;;
54845;SDS011;53889;50.084;8.646;2023-10-09T11:42:03;12.40;;;4.30;;
54845;SDS011;53889;50.084;8.646;2023-10-09T11:44:37;10.05;;;4.07;;
54845;SDS011;53889;50.084;8.646;2023-10-09T11:47:07;11.02;;;4.10;;
54845;SDS011;53889;50.084;8.646;2023-10-09T11:49:48;9.32;;;4.20;;
54845;SDS011;53889;50.084;8.646;2023-10-09T11:52:22;10.13;;;3.75;;
54845;SDS011;53889;50.084;8.646;2023-10-09T11:55:00;10.02;;;3.83;;
54845;SDS011;53889;50.084;8.646;2023-10-09T11:57:29;11.02;;;4.28;;
54845;SDS011;53889;50.084;8.646;2023-10-09T11:59:57;10.23;;;4.43;;
54845;SDS011;53889;50.084;8.646;2023-10-09T12:02:26;10.40;;;3.97;;
54845;SDS011;53889;50.084;8.646;2023-10-09T12:04:53;9.93;;;4.68;;
54845;SDS011;53889;50.084;8.646;2023-10-09T12:07:22;8.23;;;3.58;;
54845;SDS011;53889;50.084;8.646;2023-10-09T12:09:50;9.70;;;3.92;;
54845;SDS011;53889;50.084;8.646;2023-10-09T12:12:21;9.30;;;4.03;;
54845;SDS011;53889;50.084;8.646;2023-10-09T12:14:51;13.98;;;3.80;;
54845;SDS011;53889;50.084;8.646;2023-10-09T12:17:18;11.63;;;3.90;;
54845;SDS011;53889;50.084;8.646;2023-10-09T12:19:51;12.70;;;4.60;;
54845;SDS011;53889;50.084;8.646;2023-10-09T12:22:17;11.77;;;4.05;;
54845;SDS011;53889;50.084;8.646;2023-10-09T12:24:46;11.25;;;4.00;;
54845;SDS011;53889;50.084;8.646;2023-10-09T12:27:13;14.27;;;4.25;;
54845;SDS011;53889;50.084;8.646;2023-10-09T12:29:45;10.02;;;3.67;;
54845;SDS011;53889;50.084;8.646;2023-10-09T12:32:13;11.95;;;4.32;;
54845;SDS011;53889;50.084;8.646;2023-10-09T12:34:44;11.52;;;4.78;;
54845;SDS011;53889;50.084;8.646;2023-10-09T12:37:16;8.90;;;3.92;;
54845;SDS011;53889;50.084;8.646;2023-10-09T12:39:45;15.98;;;4.55;;
54845;SDS011;53889;50.084;8.646;2023-10-09T12:42:13;12.85;;;4.30;;
54845;SDS011;53889;50.084;8.646;2023-10-09T12:44:42;10.05;;;4.20;;
54845;SDS011;53889;50.084;8.646;2023-10-09T12:47:09;9.82;;;4.40;;
54845;SDS011;53889;50.084;8.646;2023-10-09T12:49:37;10.73;;;3.85;;
54845;SDS011;53889;50.084;8.646;2023-10-09T12:52:06;7.50;;;3.78;;
54845;SDS011;53889;50.084;8.646;2023-10-09T12:54:42;9.23;;;3.72;;
54845;SDS011;53889;50.084;8.646;2023-10-09T12:57:11;13.52;;;4.40;;
54845;SDS011;53889;50.084;8.646;2023-10-09T12:59:39;12.02;;;4.60;;
54845;SDS011;53889;50.084;8.646;2023-10-09T13:02:10;33.20;;;6.53;;
54845;SDS011;53889;50.084;8.646;2023-10-09T13:04:38;52.28;;;9.63;;
54845;SDS011;53889;50.084;8.646;2023-10-09T13:07:07;10.38;;;3.85;;
54845;SDS011;53889;50.084;8.646;2023-10-09T13:09:34;11.30;;;4.22;;
54845;SDS011;53889;50.084;8.646;2023-10-09T13:12:09;12.75;;;4.20;;
54845;SDS011;53889;50.084;8.646;2023-10-09T13:14:43;13.13;;;3.72;;
54845;SDS011;53889;50.084;8.646;2023-10-09T13:17:10;12.30;;;4.15;;
54845;SDS011;53889;50.084;8.646;2023-10-09T13:19:38;9.27;;;4.00;;
54845;SDS011;53889;50.084;8.646;2023-10-09T13:22:05;10.82;;;4.20;;
54845;SDS011;53889;50.084;8.646;2023-10-09T13:24:38;8.88;;;3.60;;
54845;SDS011;53889;50.084;8.646;2023-10-09T13:27:05;15.70;;;8.43;;
54845;SDS011;53889;50.084;8.646;2023-10-09T13:29:36;11.07;;;5.03;;
54845;SDS011;53889;50.084;8.646;2023-10-09T13:32:05;12.18;;;5.53;;
54845;SDS011;53889;50.084;8.646;2023-10-09T13:34:38;9.50;;;4.05;;
54845;SDS011;53889;50.084;8.646;2023-10-09T13:37:09;8.32;;;3.78;;
54845;SDS011;53889;50.084;8.646;2023-10-09T13:39:39;9.57;;;3.97;;
54845;SDS011;53889;50.084;8.646;2023-10-09T13:42:17;10.25;;;3.40;;
54845;SDS011;53889;50.084;8.646;2023-10-09T13:44:45;9.82;;;3.90;;
54845;SDS011;53889;50.084;8.646;2023-10-09T13:47:13;8.05;;;3.83;;
54845;SDS011;53889;50.084;8.646;2023-10-09T13:49:46;11.07;;;4.18;;
54845;SDS011;53889;50.084;8.646;2023-10-09T13:52:15;10.15;;;4.20;;
54845;SDS011;53889;50.084;8.646;2023-10-09T13:54:44;9.57;;;4.07;;
54845;SDS011;53889;50.084;8.646;2023-10-09T13:57:13;9.75;;;4.10;;
54845;SDS011;53889;50.084;8.646;2023-10-09T13:59:40;9.38;;;3.83;;
54845;SDS011;53889;50.084;8.646;2023-10-09T14:02:15;10.18;;;4.00;;
54845;SDS011;53889;50.084;8.646;2023-10-09T14:04:46;8.25;;;3.80;;
54845;SDS011;53889;50.084;8.646;2023-10-09T14:07:13;9.45;;;3.97;;
54845;SDS011;53889;50.084;8.646;2023-10-09T14:09:42;9.02;;;4.18;;
54845;SDS011;53889;50.084;8.646;2023-10-09T14:12:20;8.85;;;4.00;;
54845;SDS011;53889;50.084;8.646;2023-10-09T14:14:49;8.90;;;4.15;;
54845;SDS011;53889;50.084;8.646;2023-10-09T14:17:20;8.27;;;3.53;;
54845;SDS011;53889;50.084;8.646;2023-10-09T14:19:50;8.60;;;3.90;;
54845;SDS011;53889;50.084;8.646;2023-10-09T14:22:18;11.43;;;3.90;;
54845;SDS011;53889;50.084;8.646;2023-10-09T14:24:46;10.07;;;4.38;;
54845;SDS011;53889;50.084;8.646;2023-10-09T14:27:20;9.57;;;3.92;;
54845;SDS011;53889;50.084;8.646;2023-10-09T14:29:51;8.85;;;4.00;;
54845;SDS011;53889;50.084;8.646;2023-10-09T14:32:23;9.50;;;4.63;;
54845;SDS011;53889;50.084;8.646;2023-10-09T14:34:53;8.88;;;4.30;;
54845;SDS011;53889;50.084;8.646;2023-10-09T14:37:25;7.80;;;3.80;;
54845;SDS011;53889;50.084;8.646;2023-10-09T14:39:52;9.98;;;4.80;;
54845;SDS011;53889;50.084;8.646;2023-10-09T14:42:20;8.02;;;4.10;;
54845;SDS011;53889;50.084;8.646;2023-10-09T14:44:49;7.30;;;3.80;;
54845;SDS011;53889;50.084;8.646;2023-10-09T14:47:16;7.60;;;3.80;;
54845;SDS011;53889;50.084;8.646;2023-10-09T14:49:46;7.97;;;4.32;;
54845;SDS011;53889;50.084;8.646;2023-10-09T14:52:14;10.07;;;4.93;;
54845;SDS011;53889;50.084;8.646;2023-10-09T14:54:44;9.23;;;4.20;;
54845;SDS011;53889;50.084;8.646;2023-10-09T14:57:13;10.65;;;4.57;;
54845;SDS011;53889;50.084;8.646;2023-10-09T14:59:40;8.88;;;4.30;;
54845;SDS011;53889;50.084;8.646;2023-10-09T15:02:08;9.90;;;4.75;;
54845;SDS011;53889;50.084;8.646;2023-10-09T15:04:35;8.75;;;4.25;;
54845;SDS011;53889;50.084;8.646;2023-10-09T15:07:04;8.85;;;3.95;;
54845;SDS011;53889;50.084;8.646;2023-10-09T15:09:32;9.27;;;4.45;;
54845;SDS011;53889;50.084;8.646;2023-10-09T15:12:01;8.52;;;3.88;;
54845;SDS011;53889;50.084;8.646;2023-10-09T15:14:28;9.02;;;4.00;;
54845;SDS011;53889;50.084;8.646;2023-10-09T15:16:54;10.35;;;4.68;;
54845;SDS011;53889;50.084;8.646;2023-10-09T15:19:21;11.07;;;4.47;;
54845;SDS011;53889;50.084;8.646;2023-10-09T15:21:54;9.15;;;4.18;;
54845;SDS011;53889;50.084;8.646;2023-10-09T15:24:22;8.70;;;4.07;;
54845;SDS011;53889;50.084;8.646;2023-10-09T15:26:50;8.95;;;4.10;;